EZYAY2 EDDF-EGLL
Flight info
| Callsign | EZYAY2 |
|---|---|
| Flight time | N/A |
| Altitude | 28000 |
| Route | OBOKA3W/25C OBOKA Z29 TORNU DCT ABNED L980 LOGAN LOGAN2H |
| Aircraft | A20N/M-V/N |
Departure
| Time | 2026-05-05 11:02 |
|---|---|
| Airport | Frankfurt Main Airport (EDDF) |
Arrival
| Time | N/A |
|---|---|
| Airport | London Heathrow Airport (EGLL) |
| Time | Latitude | Longitude | Altitude | Speed | Heading |
|---|---|---|---|---|---|
| 2026-05-05 10:29 | 50.04896 | 8.56989 | 369 ft | 0 kts | 295° |
| 2026-05-05 10:46 | 50.04895 | 8.56993 | 367 ft | 1 kts | 295° |
| 2026-05-05 10:47 | 50.04893 | 8.57000 | 370 ft | 1 kts | 295° |
| 2026-05-05 10:47 | 50.04890 | 8.57009 | 368 ft | 1 kts | 303° |
| 2026-05-05 10:47 | 50.04886 | 8.57019 | 372 ft | 1 kts | 315° |
| 2026-05-05 10:47 | 50.04880 | 8.57027 | 369 ft | 1 kts | 318° |
| 2026-05-05 10:48 | 50.04874 | 8.57035 | 368 ft | 1 kts | 319° |
| 2026-05-05 10:48 | 50.04869 | 8.57044 | 367 ft | 1 kts | 315° |
| 2026-05-05 10:48 | 50.04860 | 8.57053 | 367 ft | 2 kts | 309° |
| 2026-05-05 10:48 | 50.04857 | 8.57069 | 367 ft | 2 kts | 257° |
| 2026-05-05 10:49 | 50.04859 | 8.57079 | 367 ft | 1 kts | 210° |
| 2026-05-05 10:49 | 50.04854 | 8.57075 | 367 ft | 0 kts | 205° |
| 2026-05-05 10:53 | 50.04846 | 8.57068 | 368 ft | 7 kts | 210° |
| 2026-05-05 10:53 | 50.04793 | 8.57027 | 370 ft | 10 kts | 200° |
| 2026-05-05 10:53 | 50.04764 | 8.57004 | 371 ft | 2 kts | 208° |
| 2026-05-05 10:54 | 50.04728 | 8.56982 | 369 ft | 9 kts | 200° |
| 2026-05-05 10:54 | 50.04653 | 8.56939 | 368 ft | 13 kts | 204° |
| 2026-05-05 10:54 | 50.04603 | 8.56907 | 368 ft | 0 kts | 200° |
| 2026-05-05 10:55 | 50.04571 | 8.56893 | 368 ft | 8 kts | 193° |
| 2026-05-05 10:55 | 50.04497 | 8.56866 | 368 ft | 14 kts | 191° |
| 2026-05-05 10:55 | 50.04393 | 8.56840 | 368 ft | 17 kts | 189° |
| 2026-05-05 10:55 | 50.04296 | 8.56849 | 368 ft | 15 kts | 141° |
| 2026-05-05 10:56 | 50.04299 | 8.57007 | 370 ft | 18 kts | 62° |
| 2026-05-05 10:56 | 50.04352 | 8.57205 | 369 ft | 22 kts | 68° |
| 2026-05-05 10:56 | 50.04406 | 8.57434 | 372 ft | 19 kts | 72° |
| 2026-05-05 10:56 | 50.04453 | 8.57642 | 370 ft | 22 kts | 69° |
| 2026-05-05 10:57 | 50.04507 | 8.57890 | 370 ft | 25 kts | 77° |
| 2026-05-05 10:57 | 50.04550 | 8.58105 | 371 ft | 9 kts | 70° |
| 2026-05-05 10:57 | 50.04581 | 8.58209 | 373 ft | 12 kts | 61° |
| 2026-05-05 10:57 | 50.04615 | 8.58350 | 372 ft | 15 kts | 69° |
| 2026-05-05 10:58 | 50.04640 | 8.58496 | 369 ft | 14 kts | 92° |
| 2026-05-05 10:58 | 50.04634 | 8.58531 | 369 ft | 0 kts | 113° |
| 2026-05-05 10:58 | 50.04621 | 8.58561 | 370 ft | 6 kts | 135° |
| 2026-05-05 10:58 | 50.04608 | 8.58576 | 369 ft | 1 kts | 142° |
| 2026-05-05 10:59 | 50.04597 | 8.58585 | 370 ft | 0 kts | 155° |
| 2026-05-05 11:00 | 50.04568 | 8.58601 | 375 ft | 6 kts | 163° |
| 2026-05-05 11:01 | 50.04522 | 8.58609 | 374 ft | 8 kts | 181° |
| 2026-05-05 11:01 | 50.04473 | 8.58543 | 374 ft | 12 kts | 248° |
| 2026-05-05 11:01 | 50.04401 | 8.58236 | 373 ft | 61 kts | 248° |
| 2026-05-05 11:01 | 50.04174 | 8.57294 | 370 ft | 127 kts | 251° |
| 2026-05-05 11:02 | 50.03800 | 8.55694 | 487 ft | 177 kts | 250° |
| 2026-05-05 11:02 | 50.03360 | 8.53857 | 1180 ft | 178 kts | 249° |
| 2026-05-05 11:02 | 50.02941 | 8.52115 | 2236 ft | 169 kts | 249° |
| 2026-05-05 11:02 | 50.02418 | 8.50348 | 2824 ft | 190 kts | 237° |
| 2026-05-05 11:03 | 50.01482 | 8.48821 | 3459 ft | 201 kts | 214° |
| 2026-05-05 11:03 | 50.00192 | 8.47985 | 4269 ft | 203 kts | 193° |
| 2026-05-05 11:03 | 49.98846 | 8.47625 | 5043 ft | 205 kts | 188° |
| 2026-05-05 11:03 | 49.97416 | 8.47348 | 5806 ft | 207 kts | 187° |
| 2026-05-05 11:04 | 49.95948 | 8.46992 | 6418 ft | 221 kts | 192° |
| 2026-05-05 11:04 | 49.94382 | 8.46391 | 6818 ft | 242 kts | 195° |
| 2026-05-05 11:04 | 49.92737 | 8.45626 | 6969 ft | 249 kts | 201° |
| 2026-05-05 11:04 | 49.91273 | 8.44204 | 6900 ft | 250 kts | 225° |
| 2026-05-05 11:05 | 49.90257 | 8.42054 | 7106 ft | 248 kts | 238° |
| 2026-05-05 11:05 | 49.89383 | 8.39702 | 7764 ft | 255 kts | 240° |
| 2026-05-05 11:05 | 49.88718 | 8.37147 | 8739 ft | 259 kts | 257° |
| 2026-05-05 11:05 | 49.88593 | 8.34319 | 9476 ft | 275 kts | 270° |
| 2026-05-05 11:06 | 49.88741 | 8.31295 | 10089 ft | 288 kts | 274° |
| 2026-05-05 11:06 | 49.89028 | 8.28100 | 10427 ft | 312 kts | 281° |
| 2026-05-05 11:06 | 49.89886 | 8.24854 | 10881 ft | 331 kts | 300° |
| 2026-05-05 11:06 | 49.91226 | 8.21883 | 11605 ft | 339 kts | 306° |
| 2026-05-05 11:07 | 49.92682 | 8.18962 | 12344 ft | 343 kts | 307° |
| 2026-05-05 11:07 | 49.94207 | 8.16134 | 12741 ft | 346 kts | 312° |
| 2026-05-05 11:07 | 49.95954 | 8.13484 | 12851 ft | 349 kts | 316° |
| 2026-05-05 11:07 | 49.97772 | 8.10975 | 12875 ft | 351 kts | 318° |
| 2026-05-05 11:08 | 49.99628 | 8.08486 | 13297 ft | 355 kts | 318° |
| 2026-05-05 11:08 | 50.01509 | 8.05976 | 14117 ft | 357 kts | 318° |
| 2026-05-05 11:08 | 50.03409 | 8.03439 | 14900 ft | 360 kts | 318° |
| 2026-05-05 11:08 | 50.05294 | 8.00918 | 15635 ft | 365 kts | 318° |
| 2026-05-05 11:09 | 50.07228 | 7.98327 | 16348 ft | 369 kts | 317° |
| 2026-05-05 11:09 | 50.09187 | 7.95699 | 17060 ft | 373 kts | 317° |
| 2026-05-05 11:09 | 50.11161 | 7.93048 | 17777 ft | 377 kts | 317° |
| 2026-05-05 11:09 | 50.13162 | 7.90356 | 18419 ft | 382 kts | 317° |
| 2026-05-05 11:10 | 50.15180 | 7.87638 | 19021 ft | 386 kts | 317° |
| 2026-05-05 11:10 | 50.16535 | 7.85810 | 19343 ft | 391 kts | 317° |
| 2026-05-05 11:10 | 50.19311 | 7.82059 | 20037 ft | 398 kts | 317° |
| 2026-05-05 11:10 | 50.21412 | 7.79218 | 20569 ft | 402 kts | 317° |
| 2026-05-05 11:11 | 50.23541 | 7.76356 | 20808 ft | 403 kts | 319° |
| 2026-05-05 11:11 | 50.25801 | 7.73752 | 20845 ft | 406 kts | 327° |
| 2026-05-05 11:11 | 50.28313 | 7.71718 | 20843 ft | 408 kts | 335° |
| 2026-05-05 11:11 | 50.30934 | 7.69994 | 20846 ft | 409 kts | 336° |
| 2026-05-05 11:12 | 50.33570 | 7.68316 | 20846 ft | 409 kts | 336° |
| 2026-05-05 11:12 | 50.36199 | 7.66617 | 20847 ft | 409 kts | 336° |
| 2026-05-05 11:12 | 50.37975 | 7.65447 | 20843 ft | 409 kts | 336° |
| 2026-05-05 11:12 | 50.40557 | 7.63721 | 20845 ft | 409 kts | 335° |
| 2026-05-05 11:13 | 50.43167 | 7.61955 | 20859 ft | 408 kts | 335° |
| 2026-05-05 11:13 | 50.45772 | 7.60178 | 20843 ft | 408 kts | 335° |
| 2026-05-05 11:13 | 50.48376 | 7.58393 | 20847 ft | 409 kts | 335° |
| 2026-05-05 11:13 | 50.50980 | 7.56600 | 20848 ft | 408 kts | 335° |
| 2026-05-05 11:14 | 50.53582 | 7.54805 | 20846 ft | 408 kts | 335° |
| 2026-05-05 11:14 | 50.56124 | 7.52832 | 20851 ft | 407 kts | 329° |
| 2026-05-05 11:14 | 50.58537 | 7.50507 | 20848 ft | 406 kts | 325° |
| 2026-05-05 11:14 | 50.60901 | 7.48070 | 20856 ft | 406 kts | 324° |
| 2026-05-05 11:15 | 50.63256 | 7.45613 | 20859 ft | 406 kts | 324° |
| 2026-05-05 11:15 | 50.65614 | 7.43156 | 20869 ft | 406 kts | 325° |
| 2026-05-05 11:15 | 50.67980 | 7.40702 | 20873 ft | 406 kts | 325° |
| 2026-05-05 11:15 | 50.70342 | 7.38258 | 20875 ft | 406 kts | 325° |
| 2026-05-05 11:16 | 50.72623 | 7.35658 | 20871 ft | 404 kts | 318° |
| 2026-05-05 11:16 | 50.74607 | 7.32534 | 20876 ft | 402 kts | 307° |
| 2026-05-05 11:16 | 50.76164 | 7.28896 | 20883 ft | 399 kts | 298° |
| 2026-05-05 11:16 | 50.77484 | 7.25048 | 20882 ft | 398 kts | 295° |
| 2026-05-05 11:17 | 50.78704 | 7.21119 | 20886 ft | 398 kts | 293° |
| 2026-05-05 11:17 | 50.79894 | 7.17154 | 20883 ft | 398 kts | 293° |
| 2026-05-05 11:17 | 50.81081 | 7.13202 | 20886 ft | 399 kts | 293° |
| 2026-05-05 11:17 | 50.82287 | 7.09252 | 20886 ft | 399 kts | 294° |
| 2026-05-05 11:18 | 50.83504 | 7.05335 | 20884 ft | 399 kts | 294° |
| 2026-05-05 11:18 | 50.84749 | 7.01392 | 20885 ft | 399 kts | 294° |
| 2026-05-05 11:18 | 50.86002 | 6.97463 | 20883 ft | 399 kts | 295° |
| 2026-05-05 11:18 | 50.87258 | 6.93553 | 20896 ft | 399 kts | 294° |
| 2026-05-05 11:19 | 50.88520 | 6.89640 | 20874 ft | 399 kts | 295° |
| 2026-05-05 11:19 | 50.89783 | 6.85726 | 20876 ft | 399 kts | 295° |
| 2026-05-05 11:19 | 50.91045 | 6.81801 | 20884 ft | 399 kts | 295° |
| 2026-05-05 11:19 | 50.92302 | 6.77881 | 20881 ft | 399 kts | 295° |
| 2026-05-05 11:20 | 50.93542 | 6.74008 | 20881 ft | 399 kts | 295° |
| 2026-05-05 11:20 | 50.94833 | 6.69966 | 20882 ft | 399 kts | 295° |
| 2026-05-05 11:20 | 50.96069 | 6.66091 | 20883 ft | 399 kts | 295° |
| 2026-05-05 11:20 | 50.97323 | 6.62152 | 20880 ft | 399 kts | 295° |
| 2026-05-05 11:21 | 50.98577 | 6.58208 | 20880 ft | 399 kts | 295° |
| 2026-05-05 11:21 | 50.99825 | 6.54274 | 20878 ft | 400 kts | 295° |
| 2026-05-05 11:21 | 51.01076 | 6.50323 | 20876 ft | 400 kts | 295° |
| 2026-05-05 11:21 | 51.02324 | 6.46376 | 20881 ft | 400 kts | 295° |
| 2026-05-05 11:22 | 51.03570 | 6.42433 | 20881 ft | 400 kts | 295° |
| 2026-05-05 11:22 | 51.04817 | 6.38477 | 20882 ft | 400 kts | 295° |
| 2026-05-05 11:22 | 51.06063 | 6.34521 | 20879 ft | 400 kts | 295° |
| 2026-05-05 11:22 | 51.07303 | 6.30575 | 20881 ft | 400 kts | 295° |